Time;durP1;ratioP1;P1;durP2;ratioP2;P2;SDS_P1;SDS_P2;PMS_P1;PMS_P2;Temp;Humidity;BMP_temperature;BMP_pressure;BME280_temperature;BME280_humidity;BME280_pressure;Samples;Min_cycle;Max_cycle;Signal;HPM_P1;HPM_P2
2022/06/28 00:00:43;;;;;;;5.45;5.05;;;;;;;;;;5035453;28;20244;-52
2022/06/28 00:03:09;;;;;;;5.55;5.18;;;;;;;;;;5029213;28;20231;-53
2022/06/28 00:05:36;;;;;;;7.53;6.00;;;;;;;;;;5041799;28;20231;-52
2022/06/28 00:08:02;;;;;;;5.55;5.15;;;;;;;;;;5042441;28;20227;-51
2022/06/28 00:10:30;;;;;;;7.97;7.22;;;;;;;;;;5040017;28;20236;-53
2022/06/28 00:12:56;;;;;;;7.68;7.05;;;;;;;;;;5036225;28;20378;-53
2022/06/28 00:18:06;;;;;;;7.43;6.93;;;;;;;;;;5028887;28;20242;-53
2022/06/28 00:20:33;;;;;;;8.15;7.55;;;;;;;;;;5036554;28;20539;-53
2022/06/28 00:22:59;;;;;;;9.50;8.70;;;;;;;;;;5041374;28;20225;-53
2022/06/28 00:25:26;;;;;;;9.32;8.52;;;;;;;;;;5036807;28;20651;-53
2022/06/28 00:27:54;;;;;;;8.52;7.93;;;;;;;;;;5031538;28;20321;-54
2022/06/28 00:30:20;;;;;;;11.00;10.10;;;;;;;;;;5030498;28;20577;-53
2022/06/28 00:32:46;;;;;;;11.48;10.57;;;;;;;;;;5023546;28;20245;-53
2022/06/28 00:35:12;;;;;;;10.65;9.85;;;;;;;;;;5029099;28;20659;-53
2022/06/28 00:37:39;;;;;;;12.00;11.10;;;;;;;;;;5036134;28;20234;-53
2022/06/28 00:40:06;;;;;;;11.77;10.68;;;;;;;;;;5022498;28;20239;-52
2022/06/28 00:42:32;;;;;;;11.48;10.48;;;;;;;;;;5032167;28;20694;-52
2022/06/28 00:45:01;;;;;;;12.13;11.05;;;;;;;;;;5040559;28;20231;-52
2022/06/28 00:47:27;;;;;;;13.40;12.30;;;;;;;;;;5032081;28;20240;-54
2022/06/28 00:49:56;;;;;;;12.68;11.48;;;;;;;;;;5033940;28;20268;-52
2022/06/28 00:52:22;;;;;;;12.77;11.75;;;;;;;;;;5040619;28;20231;-52
2022/06/28 00:54:48;;;;;;;13.65;12.52;;;;;;;;;;5024644;28;20236;-53
2022/06/28 00:57:15;;;;;;;13.15;12.05;;;;;;;;;;5026654;28;20228;-52
2022/06/28 00:59:41;;;;;;;12.23;11.07;;;;;;;;;;5024734;28;20240;-52
2022/06/28 01:02:09;;;;;;;12.93;11.68;;;;;;;;;;5040699;28;20230;-52
2022/06/28 01:04:36;;;;;;;10.93;10.02;;;;;;;;;;5044637;28;20236;-53
2022/06/28 01:07:02;;;;;;;11.48;10.55;;;;;;;;;;5048966;28;20228;-53
2022/06/28 01:09:28;;;;;;;10.40;9.60;;;;;;;;;;5035865;28;20231;-52
2022/06/28 01:11:55;;;;;;;10.27;9.48;;;;;;;;;;5025046;28;20236;-52
2022/06/28 01:14:23;;;;;;;10.77;9.68;;;;;;;;;;5023040;28;20234;-52
2022/06/28 01:16:50;;;;;;;9.82;9.00;;;;;;;;;;5024143;28;20239;-52
2022/06/28 01:19:17;;;;;;;10.55;9.75;;;;;;;;;;5042575;28;20251;-51
2022/06/28 01:21:44;;;;;;;9.77;8.98;;;;;;;;;;5040029;28;20233;-51
2022/06/28 01:24:12;;;;;;;9.63;8.82;;;;;;;;;;5027913;28;20237;-52
2022/06/28 01:26:39;;;;;;;10.27;9.48;;;;;;;;;;5033286;28;20232;-50
2022/06/28 01:29:06;;;;;;;9.95;9.00;;;;;;;;;;5023842;28;20237;-50
2022/06/28 01:31:33;;;;;;;9.55;8.82;;;;;;;;;;5025193;28;20263;-52
2022/06/28 01:33:59;;;;;;;9.48;8.68;;;;;;;;;;5023761;28;20259;-51
2022/06/28 01:36:25;;;;;;;9.13;8.32;;;;;;;;;;5029596;28;20228;-51
2022/06/28 01:38:52;;;;;;;10.95;10.02;;;;;;;;;;5042572;28;20245;-52
2022/06/28 01:41:34;;;;;;;10.88;9.98;;;;;;;;;;5037393;28;20236;-51
2022/06/28 01:44:03;;;;;;;10.25;8.93;;;;;;;;;;5032233;28;20231;-51
2022/06/28 01:46:29;;;;;;;11.32;10.10;;;;;;;;;;5026612;28;20229;-51
2022/06/28 01:48:56;;;;;;;10.52;9.57;;;;;;;;;;5036518;28;20728;-51
2022/06/28 01:51:22;;;;;;;10.38;9.48;;;;;;;;;;5042942;28;20224;-52
2022/06/28 01:53:51;;;;;;;10.38;9.48;;;;;;;;;;5028138;28;20243;-52
2022/06/28 01:56:17;;;;;;;11.88;10.60;;;;;;;;;;5036344;28;20618;-51
2022/06/28 01:58:45;;;;;;;10.82;9.90;;;;;;;;;;5033086;28;20230;-52
2022/06/28 02:01:11;;;;;;;10.50;9.60;;;;;;;;;;5041740;28;20240;-51
2022/06/28 02:03:38;;;;;;;10.15;9.25;;;;;;;;;;5039210;28;20239;-54
2022/06/28 02:06:04;;;;;;;10.45;9.65;;;;;;;;;;5033439;28;20481;-50
2022/06/28 02:08:30;;;;;;;8.88;8.18;;;;;;;;;;5026441;28;20237;-51
2022/06/28 02:10:57;;;;;;;9.77;8.73;;;;;;;;;;5028330;28;20228;-51
2022/06/28 02:13:24;;;;;;;8.68;7.97;;;;;;;;;;5032181;28;20726;-53
2022/06/28 02:15:51;;;;;;;9.15;8.45;;;;;;;;;;5037661;28;20239;-51
2022/06/28 02:18:18;;;;;;;9.27;8.48;;;;;;;;;;5031039;28;20243;-52
2022/06/28 02:20:44;;;;;;;9.15;8.45;;;;;;;;;;5045790;28;20227;-51
2022/06/28 02:23:10;;;;;;;8.55;7.85;;;;;;;;;;5035268;28;20239;-52
2022/06/28 02:25:37;;;;;;;8.13;7.43;;;;;;;;;;5033350;28;20240;-52
2022/06/28 02:28:03;;;;;;;7.88;7.18;;;;;;;;;;5021681;28;20230;-50
2022/06/28 02:30:30;;;;;;;7.68;7.07;;;;;;;;;;5036355;28;20570;-52
2022/06/28 02:32:57;;;;;;;8.63;7.90;;;;;;;;;;5040527;28;20250;-52
2022/06/28 02:40:51;;;;;;;7.03;6.53;;;;;;;;;;5035444;28;20327;-51
2022/06/28 02:43:18;;;;;;;7.93;7.22;;;;;;;;;;5032622;28;20236;-51
2022/06/28 02:45:46;;;;;;;7.72;7.10;;;;;;;;;;5023284;28;20742;-51
2022/06/28 02:48:14;;;;;;;7.65;7.10;;;;;;;;;;5022147;28;20252;-51
2022/06/28 02:50:40;;;;;;;8.32;7.57;;;;;;;;;;5037340;28;20247;-52
2022/06/28 02:53:07;;;;;;;7.95;7.22;;;;;;;;;;5036029;28;20253;-54
2022/06/28 02:55:33;;;;;;;6.68;6.18;;;;;;;;;;5044045;28;20231;-53
2022/06/28 02:58:00;;;;;;;6.55;6.05;;;;;;;;;;5023719;28;20225;-52
2022/06/28 03:00:26;;;;;;;6.70;6.10;;;;;;;;;;5041711;28;20749;-53
2022/06/28 03:02:52;;;;;;;6.85;6.18;;;;;;;;;;5038857;28;20697;-53
2022/06/28 03:05:21;;;;;;;6.30;5.70;;;;;;;;;;5034752;28;20235;-52
2022/06/28 03:07:48;;;;;;;6.03;5.43;;;;;;;;;;5034542;28;20228;-54
2022/06/28 03:10:15;;;;;;;6.47;5.88;;;;;;;;;;5032984;28;20286;-51
2022/06/28 03:12:41;;;;;;;6.47;5.88;;;;;;;;;;5022643;28;20312;-52
2022/06/28 03:15:08;;;;;;;5.90;5.50;;;;;;;;;;5017975;28;20249;-52
2022/06/28 03:17:34;;;;;;;5.03;4.63;;;;;;;;;;5022660;28;20244;-52
2022/06/28 03:20:01;;;;;;;5.32;4.68;;;;;;;;;;5023870;28;20239;-52
2022/06/28 03:22:29;;;;;;;4.65;4.35;;;;;;;;;;5022835;28;20290;-51
2022/06/28 03:24:56;;;;;;;5.22;4.82;;;;;;;;;;5043882;28;20240;-53
2022/06/28 03:27:22;;;;;;;4.05;3.70;;;;;;;;;;5034926;28;20258;-52
2022/06/28 03:29:51;;;;;;;4.93;4.43;;;;;;;;;;5030343;28;20227;-51
2022/06/28 03:32:17;;;;;;;4.78;4.45;;;;;;;;;;5037851;28;20306;-53
2022/06/28 03:34:43;;;;;;;4.88;4.30;;;;;;;;;;5035562;28;20234;-51
2022/06/28 03:37:10;;;;;;;3.92;3.63;;;;;;;;;;5037927;28;20250;-52
2022/06/28 03:39:37;;;;;;;4.50;4.10;;;;;;;;;;5032276;28;20240;-53
2022/06/28 03:42:04;;;;;;;4.10;3.72;;;;;;;;;;5041888;28;20239;-52
2022/06/28 03:44:30;;;;;;;4.40;4.00;;;;;;;;;;5033775;28;20246;-51
2022/06/28 03:46:57;;;;;;;4.28;3.88;;;;;;;;;;5025958;28;20228;-54
2022/06/28 03:49:23;;;;;;;3.95;3.65;;;;;;;;;;5021959;28;20228;-53
2022/06/28 03:51:49;;;;;;;4.10;3.70;;;;;;;;;;5037248;28;20580;-52
2022/06/28 03:54:16;;;;;;;3.78;3.50;;;;;;;;;;5046064;28;20239;-52
2022/06/28 03:56:43;;;;;;;3.80;3.50;;;;;;;;;;5043707;28;20232;-51
2022/06/28 03:59:10;;;;;;;5.55;3.78;;;;;;;;;;5043096;28;20232;-52
2022/06/28 04:01:36;;;;;;;3.47;3.17;;;;;;;;;;5043342;28;20236;-51
2022/06/28 04:04:02;;;;;;;4.40;4.00;;;;;;;;;;5041841;28;20228;-52
2022/06/28 04:06:29;;;;;;;4.20;3.80;;;;;;;;;;5043053;28;20242;-57
2022/06/28 04:08:55;;;;;;;3.85;3.55;;;;;;;;;;5042855;28;20733;-51
2022/06/28 04:11:21;;;;;;;3.75;3.40;;;;;;;;;;5040551;28;20244;-52
2022/06/28 04:13:50;;;;;;;4.03;3.72;;;;;;;;;;5043448;28;20616;-52
2022/06/28 04:16:16;;;;;;;10.05;5.28;;;;;;;;;;5026539;28;20229;-51
2022/06/28 04:18:43;;;;;;;3.20;3.00;;;;;;;;;;5032205;28;20228;-52
2022/06/28 04:21:10;;;;;;;5.50;3.78;;;;;;;;;;5021945;28;20238;-51
2022/06/28 04:23:36;;;;;;;3.88;3.58;;;;;;;;;;5023547;28;20323;-53
2022/06/28 04:26:03;;;;;;;3.95;3.33;;;;;;;;;;5031950;28;20234;-51
2022/06/28 04:28:29;;;;;;;4.57;4.10;;;;;;;;;;5039430;28;20239;-52
2022/06/28 04:30:57;;;;;;;4.18;3.88;;;;;;;;;;5035784;28;20360;-52
2022/06/28 04:33:23;;;;;;;4.50;4.20;;;;;;;;;;5039825;28;20717;-52
2022/06/28 04:35:50;;;;;;;4.47;4.13;;;;;;;;;;5031903;28;20707;-52
2022/06/28 04:38:16;;;;;;;4.63;3.95;;;;;;;;;;5029345;28;20242;-58
2022/06/28 04:40:42;;;;;;;5.10;4.40;;;;;;;;;;5029376;28;20600;-51
2022/06/28 04:43:09;;;;;;;4.72;4.32;;;;;;;;;;5039643;28;20232;-51
2022/06/28 04:45:36;;;;;;;4.68;4.30;;;;;;;;;;5039029;28;20235;-52
2022/06/28 04:48:04;;;;;;;5.05;4.65;;;;;;;;;;5042542;28;20224;-52
2022/06/28 04:50:31;;;;;;;4.82;4.43;;;;;;;;;;5024004;28;20311;-52
2022/06/28 04:52:57;;;;;;;5.57;5.18;;;;;;;;;;5030616;28;20254;-53
2022/06/28 04:55:24;;;;;;;4.20;3.90;;;;;;;;;;5022303;28;20243;-54
2022/06/28 04:57:50;;;;;;;4.75;4.35;;;;;;;;;;5040210;28;20236;-51
2022/06/28 05:00:17;;;;;;;4.78;4.47;;;;;;;;;;5036629;28;20236;-52
2022/06/28 05:02:43;;;;;;;5.93;5.32;;;;;;;;;;5024991;28;20244;-51
2022/06/28 05:05:11;;;;;;;4.63;4.22;;;;;;;;;;5040711;28;20243;-51
2022/06/28 05:07:38;;;;;;;4.50;4.10;;;;;;;;;;5037053;28;20239;-52
2022/06/28 05:10:05;;;;;;;5.55;5.13;;;;;;;;;;5037737;28;20575;-53
2022/06/28 05:12:31;;;;;;;5.22;4.82;;;;;;;;;;5040254;28;20243;-53
2022/06/28 05:14:58;;;;;;;4.78;4.38;;;;;;;;;;5026117;28;20613;-53
2022/06/28 05:17:24;;;;;;;5.30;4.75;;;;;;;;;;5037017;28;20239;-51
2022/06/28 05:19:51;;;;;;;5.13;4.57;;;;;;;;;;5031381;28;20240;-52
2022/06/28 05:22:18;;;;;;;5.00;4.50;;;;;;;;;;5042735;28;20769;-52
2022/06/28 05:24:45;;;;;;;5.05;4.65;;;;;;;;;;5045864;28;20610;-52
2022/06/28 05:27:11;;;;;;;5.05;4.63;;;;;;;;;;5047947;28;20228;-52
2022/06/28 05:29:37;;;;;;;4.85;4.55;;;;;;;;;;5044983;28;20232;-51
2022/06/28 05:32:04;;;;;;;5.18;4.78;;;;;;;;;;5044659;28;20236;-52
2022/06/28 05:34:30;;;;;;;5.80;5.30;;;;;;;;;;5043068;28;20244;-51
2022/06/28 05:36:58;;;;;;;4.88;4.53;;;;;;;;;;5042151;28;20306;-53
2022/06/28 05:39:25;;;;;;;4.97;4.57;;;;;;;;;;5042383;28;20247;-51
2022/06/28 05:41:52;;;;;;;5.63;5.22;;;;;;;;;;5043206;28;20232;-52
2022/06/28 05:44:18;;;;;;;4.80;4.50;;;;;;;;;;5045777;28;21023;-52
2022/06/28 05:46:44;;;;;;;4.32;4.03;;;;;;;;;;5043916;28;20227;-51
2022/06/28 05:49:11;;;;;;;4.38;3.97;;;;;;;;;;5046435;28;20980;-51
2022/06/28 05:51:37;;;;;;;3.85;3.55;;;;;;;;;;5050185;28;20318;-52
2022/06/28 05:54:03;;;;;;;3.97;3.60;;;;;;;;;;5051245;28;20664;-52
2022/06/28 05:56:32;;;;;;;3.85;3.55;;;;;;;;;;5047593;28;20232;-52
2022/06/28 05:58:58;;;;;;;4.65;3.72;;;;;;;;;;5045945;28;20341;-53
2022/06/28 06:01:25;;;;;;;3.42;3.17;;;;;;;;;;5043061;28;20232;-51
2022/06/28 06:03:52;;;;;;;3.03;2.83;;;;;;;;;;5044463;28;20718;-51
2022/06/28 06:06:18;;;;;;;4.50;4.10;;;;;;;;;;5046862;28;20238;-51
2022/06/28 06:08:44;;;;;;;3.90;3.60;;;;;;;;;;5047275;28;20236;-51
2022/06/28 06:11:11;;;;;;;3.78;3.47;;;;;;;;;;5039866;28;20865;-51
2022/06/28 06:13:38;;;;;;;4.72;4.32;;;;;;;;;;5042816;28;20243;-53
2022/06/28 06:16:05;;;;;;;4.22;3.92;;;;;;;;;;5043326;28;20230;-51
2022/06/28 06:18:31;;;;;;;3.63;3.25;;;;;;;;;;5046146;28;20238;-52
2022/06/28 06:20:58;;;;;;;5.20;4.10;;;;;;;;;;5042994;28;20243;-53
2022/06/28 06:23:26;;;;;;;4.25;3.95;;;;;;;;;;5043651;28;20231;-52
2022/06/28 06:25:52;;;;;;;4.15;3.78;;;;;;;;;;5033748;28;20228;-52
2022/06/28 06:28:19;;;;;;;3.95;3.65;;;;;;;;;;5042238;28;20231;-50
2022/06/28 06:30:46;;;;;;;4.07;3.60;;;;;;;;;;5032760;28;20232;-51
2022/06/28 06:33:12;;;;;;;3.28;3.08;;;;;;;;;;5038849;28;20240;-50
2022/06/28 06:35:39;;;;;;;4.47;4.07;;;;;;;;;;5046408;28;20654;-53
2022/06/28 06:38:05;;;;;;;3.50;3.20;;;;;;;;;;5030556;28;20302;-54
2022/06/28 06:40:32;;;;;;;3.22;3.03;;;;;;;;;;5022165;28;20232;-52
2022/06/28 06:42:58;;;;;;;3.30;3.00;;;;;;;;;;5024217;28;20220;-51
2022/06/28 06:45:24;;;;;;;3.50;3.30;;;;;;;;;;5022643;28;20225;-52
2022/06/28 06:47:52;;;;;;;3.58;3.28;;;;;;;;;;5039048;28;20301;-51
2022/06/28 06:50:20;;;;;;;3.58;2.83;;;;;;;;;;5029217;28;20229;-51
2022/06/28 06:52:46;;;;;;;5.18;3.22;;;;;;;;;;5039309;28;20296;-51
2022/06/28 06:55:12;;;;;;;3.33;3.13;;;;;;;;;;5043807;28;20693;-52
2022/06/28 06:57:39;;;;;;;2.40;2.30;;;;;;;;;;5044172;28;20224;-52
2022/06/28 07:00:06;;;;;;;2.60;2.40;;;;;;;;;;5043913;28;20228;-52
2022/06/28 07:02:32;;;;;;;3.13;2.85;;;;;;;;;;5043581;28;20227;-53
2022/06/28 07:05:00;;;;;;;3.55;2.67;;;;;;;;;;5039496;28;20327;-51
2022/06/28 07:07:26;;;;;;;3.45;3.15;;;;;;;;;;5044142;28;20243;-52
2022/06/28 07:09:53;;;;;;;3.20;3.00;;;;;;;;;;5042588;28;20285;-51
2022/06/28 07:12:19;;;;;;;2.90;2.70;;;;;;;;;;5040631;28;20273;-51
2022/06/28 07:14:45;;;;;;;2.30;2.20;;;;;;;;;;5045690;28;20646;-51
2022/06/28 07:17:12;;;;;;;2.75;2.55;;;;;;;;;;5039770;28;20244;-52
2022/06/28 07:19:38;;;;;;;2.97;2.30;;;;;;;;;;5024263;28;20235;-52
2022/06/28 07:22:06;;;;;;;2.90;2.70;;;;;;;;;;5035559;28;20232;-53
2022/06/28 07:24:32;;;;;;;4.20;2.85;;;;;;;;;;5032877;28;20236;-53
2022/06/28 07:26:58;;;;;;;2.50;2.30;;;;;;;;;;5036296;28;20227;-52
2022/06/28 07:29:25;;;;;;;2.72;2.53;;;;;;;;;;5039331;28;20225;-51
2022/06/28 07:31:51;;;;;;;2.45;2.35;;;;;;;;;;5042252;28;20228;-51
2022/06/28 07:34:18;;;;;;;2.72;2.53;;;;;;;;;;5038760;28;20286;-54
2022/06/28 07:36:44;;;;;;;2.17;2.08;;;;;;;;;;5037389;28;20228;-50
2022/06/28 07:39:12;;;;;;;2.53;2.42;;;;;;;;;;5034968;28;20225;-51
2022/06/28 07:41:38;;;;;;;2.75;2.55;;;;;;;;;;5025445;28;20227;-52
2022/06/28 07:44:05;;;;;;;2.38;2.22;;;;;;;;;;5041046;28;20236;-52
2022/06/28 07:46:31;;;;;;;2.58;2.38;;;;;;;;;;5041940;28;20231;-53
2022/06/28 07:48:58;;;;;;;4.15;2.20;;;;;;;;;;5043454;28;20259;-52
2022/06/28 07:54:08;;;;;;;2.15;2.03;;;;;;;;;;5036800;28;20246;-52
2022/06/28 07:56:36;;;;;;;2.42;2.15;;;;;;;;;;5028930;28;20722;-52
2022/06/28 07:59:03;;;;;;;2.10;1.95;;;;;;;;;;5032639;28;20227;-52
2022/06/28 08:01:29;;;;;;;1.95;1.85;;;;;;;;;;5036261;28;20294;-52
2022/06/28 08:03:55;;;;;;;1.92;1.83;;;;;;;;;;5038790;28;20609;-53
2022/06/28 08:06:22;;;;;;;1.90;1.80;;;;;;;;;;5031876;28;20228;-51
2022/06/28 08:08:48;;;;;;;1.60;1.50;;;;;;;;;;5035710;28;20339;-52
2022/06/28 08:11:15;;;;;;;1.70;1.60;;;;;;;;;;5040795;28;20318;-52
2022/06/28 08:13:42;;;;;;;1.25;1.23;;;;;;;;;;5037838;28;20240;-52
2022/06/28 08:16:09;;;;;;;1.63;1.52;;;;;;;;;;5033156;28;20723;-51
2022/06/28 08:18:35;;;;;;;1.75;1.65;;;;;;;;;;5026790;28;20224;-51
2022/06/28 08:21:01;;;;;;;2.50;1.55;;;;;;;;;;5018138;28;20232;-53
2022/06/28 08:23:28;;;;;;;1.70;1.60;;;;;;;;;;5023677;28;20259;-55
2022/06/28 08:25:54;;;;;;;2.50;1.70;;;;;;;;;;5036591;28;20228;-52
2022/06/28 08:28:20;;;;;;;1.58;1.48;;;;;;;;;;5036946;28;20239;-50
2022/06/28 08:30:48;;;;;;;2.30;1.60;;;;;;;;;;5039043;28;20234;-51
2022/06/28 08:33:14;;;;;;;1.90;1.80;;;;;;;;;;5022316;28;20228;-51
2022/06/28 08:35:41;;;;;;;1.42;1.33;;;;;;;;;;5028621;28;20238;-50
2022/06/28 08:38:08;;;;;;;1.77;1.67;;;;;;;;;;5034046;28;20236;-51
2022/06/28 08:40:35;;;;;;;1.40;1.30;;;;;;;;;;5020842;28;20331;-51
2022/06/28 08:43:01;;;;;;;1.88;1.77;;;;;;;;;;5033841;28;20266;-51
2022/06/28 08:45:28;;;;;;;2.50;1.92;;;;;;;;;;5041497;28;20299;-52
2022/06/28 08:47:56;;;;;;;1.25;1.17;;;;;;;;;;5037604;28;20290;-50
2022/06/28 08:50:28;;;;;;;1.70;1.60;;;;;;;;;;5037192;28;20242;-52
2022/06/28 08:52:55;;;;;;;1.50;1.40;;;;;;;;;;5035348;28;20240;-51
2022/06/28 08:55:22;;;;;;;1.40;1.30;;;;;;;;;;5017755;28;20260;-52
2022/06/28 08:57:48;;;;;;;1.75;1.65;;;;;;;;;;5010774;28;20252;-52
2022/06/28 09:00:15;;;;;;;2.33;1.55;;;;;;;;;;5033152;28;20232;-52
2022/06/28 09:02:41;;;;;;;1.65;1.55;;;;;;;;;;5037176;28;20238;-51
2022/06/28 09:05:09;;;;;;;1.52;1.42;;;;;;;;;;5040123;28;20255;-53
2022/06/28 09:07:35;;;;;;;1.50;1.40;;;;;;;;;;5043997;28;20242;-52
2022/06/28 09:10:02;;;;;;;1.98;1.83;;;;;;;;;;5039963;28;20239;-52
2022/06/28 09:12:29;;;;;;;1.50;1.40;;;;;;;;;;5044004;28;20657;-52
2022/06/28 09:14:57;;;;;;;1.42;1.33;;;;;;;;;;5039274;28;22639;-52
2022/06/28 09:17:24;;;;;;;3.28;1.52;;;;;;;;;;5038790;28;20252;-52
2022/06/28 09:19:53;;;;;;;1.20;1.15;;;;;;;;;;5039780;28;20235;-51
2022/06/28 09:22:30;;;;;;;1.38;1.25;;;;;;;;;;5035371;28;20240;-52
2022/06/28 09:24:56;;;;;;;1.20;1.20;;;;;;;;;;5022431;28;20236;-52
2022/06/28 09:27:27;;;;;;;1.20;1.10;;;;;;;;;;5034733;28;20236;-53
2022/06/28 09:29:54;;;;;;;1.30;1.20;;;;;;;;;;5043267;28;20235;-52
2022/06/28 09:32:26;;;;;;;0.80;0.80;;;;;;;;;;5039410;28;20240;-51
2022/06/28 09:34:53;;;;;;;1.08;1.05;;;;;;;;;;5030144;28;20248;-51
2022/06/28 09:37:31;;;;;;;1.35;1.25;;;;;;;;;;5034046;28;20240;-52
2022/06/28 09:39:58;;;;;;;0.88;0.88;;;;;;;;;;5035516;28;20232;-51
2022/06/28 09:42:24;;;;;;;1.63;0.88;;;;;;;;;;5042547;28;20234;-51
2022/06/28 09:44:51;;;;;;;1.40;1.00;;;;;;;;;;5040753;28;20242;-53
2022/06/28 09:47:18;;;;;;;1.00;1.00;;;;;;;;;;5043972;28;20232;-53
2022/06/28 09:49:47;;;;;;;1.13;1.00;;;;;;;;;;5036444;28;20224;-52
2022/06/28 09:52:15;;;;;;;0.85;0.85;;;;;;;;;;5027687;28;20233;-52
2022/06/28 09:54:46;;;;;;;0.98;0.98;;;;;;;;;;5035870;28;20238;-51
2022/06/28 09:57:13;;;;;;;0.85;0.85;;;;;;;;;;5034684;28;20255;-52
2022/06/28 09:59:39;;;;;;;1.25;0.80;;;;;;;;;;5032620;28;20236;-52
2022/06/28 10:02:10;;;;;;;1.20;1.10;;;;;;;;;;5027422;28;20239;-52
2022/06/28 10:04:36;;;;;;;0.80;0.80;;;;;;;;;;5035574;28;20252;-51
2022/06/28 10:07:03;;;;;;;0.80;0.80;;;;;;;;;;5034979;28;20241;-52
2022/06/28 10:09:29;;;;;;;2.38;0.77;;;;;;;;;;5032874;28;20769;-52
2022/06/28 10:17:33;;;;;;;0.82;0.82;;;;;;;;;;5039265;28;20296;-53
2022/06/28 10:20:00;;;;;;;1.00;0.90;;;;;;;;;;5032558;28;20238;-51
2022/06/28 10:22:27;;;;;;;2.28;0.90;;;;;;;;;;5032014;28;20239;-52
2022/06/28 10:24:54;;;;;;;1.23;1.00;;;;;;;;;;5033590;28;20778;-53
2022/06/28 10:27:22;;;;;;;1.73;1.33;;;;;;;;;;5026850;28;20228;-52
2022/06/28 10:30:08;;;;;;;0.80;0.80;;;;;;;;;;5040128;28;20243;-53
2022/06/28 10:32:42;;;;;;;0.90;0.90;;;;;;;;;;5038879;28;20228;-50
2022/06/28 10:35:08;;;;;;;0.80;0.80;;;;;;;;;;5025888;28;20232;-51
2022/06/28 10:37:35;;;;;;;1.05;0.95;;;;;;;;;;5025896;28;20228;-52
2022/06/28 10:40:16;;;;;;;1.20;1.00;;;;;;;;;;5036429;28;20277;-53
2022/06/28 10:42:50;;;;;;;0.80;0.80;;;;;;;;;;5036946;28;20232;-54
2022/06/28 10:45:16;;;;;;;0.70;0.70;;;;;;;;;;5037669;28;20257;-50
2022/06/28 10:47:57;;;;;;;1.33;0.98;;;;;;;;;;5038135;28;20287;-52
2022/06/28 10:50:24;;;;;;;1.85;0.77;;;;;;;;;;5039349;28;20240;-52
2022/06/28 10:53:01;;;;;;;1.15;1.00;;;;;;;;;;5031061;28;20256;-52
2022/06/28 10:55:27;;;;;;;0.80;0.80;;;;;;;;;;5050858;28;20314;-50
2022/06/28 10:58:08;;;;;;;1.00;1.00;;;;;;;;;;5042514;28;20239;-51
2022/06/28 11:00:35;;;;;;;4.32;0.80;;;;;;;;;;5037761;28;20441;-52
2022/06/28 11:03:03;;;;;;;0.73;0.73;;;;;;;;;;5023092;28;20233;-53
2022/06/28 11:05:45;;;;;;;0.80;0.80;;;;;;;;;;5038261;28;20278;-53
2022/06/28 11:08:12;;;;;;;1.02;0.88;;;;;;;;;;5040317;28;20253;-51
2022/06/28 11:10:59;;;;;;;1.23;0.90;;;;;;;;;;5035216;28;20316;-51
2022/06/28 11:13:26;;;;;;;1.02;0.70;;;;;;;;;;5027317;28;20389;-51
2022/06/28 11:15:53;;;;;;;1.83;0.90;;;;;;;;;;5033358;28;20235;-51
2022/06/28 11:18:23;;;;;;;0.45;0.45;;;;;;;;;;5038310;28;21753;-52
2022/06/28 11:20:50;;;;;;;0.80;0.80;;;;;;;;;;5045330;28;20266;-51
2022/06/28 11:23:22;;;;;;;2.25;0.88;;;;;;;;;;5040254;28;20794;-52
2022/06/28 11:28:52;;;;;;;0.82;0.60;;;;;;;;;;5038883;28;20239;-52
2022/06/28 11:31:18;;;;;;;0.98;0.98;;;;;;;;;;5038958;28;20505;-52
2022/06/28 11:33:45;;;;;;;0.70;0.70;;;;;;;;;;5041315;28;20242;-51
2022/06/28 11:36:20;;;;;;;2.28;0.95;;;;;;;;;;5037241;28;20250;-51
2022/06/28 11:38:46;;;;;;;0.80;0.80;;;;;;;;;;5038823;28;20266;-53
2022/06/28 11:41:27;;;;;;;0.82;0.82;;;;;;;;;;5031379;28;20322;-52
2022/06/28 11:43:57;;;;;;;0.47;0.47;;;;;;;;;;5033410;28;20232;-50
2022/06/28 11:46:25;;;;;;;0.50;0.50;;;;;;;;;;5039794;28;20613;-50
2022/06/28 11:48:51;;;;;;;0.65;0.65;;;;;;;;;;5026670;28;20236;-51
2022/06/28 11:51:25;;;;;;;1.00;0.88;;;;;;;;;;5031379;28;20761;-52
2022/06/28 11:53:51;;;;;;;1.55;0.77;;;;;;;;;;5042050;28;20255;-51
2022/06/28 11:56:18;;;;;;;0.77;0.77;;;;;;;;;;5039916;28;20741;-51
2022/06/28 11:58:45;;;;;;;0.90;0.90;;;;;;;;;;5042016;28;20769;-50
2022/06/28 12:01:13;;;;;;;0.77;0.63;;;;;;;;;;5043239;28;20228;-52
2022/06/28 12:03:55;;;;;;;0.80;0.80;;;;;;;;;;5043209;28;20244;-52
2022/06/28 12:06:23;;;;;;;0.63;0.63;;;;;;;;;;5041799;28;20677;-51
2022/06/28 12:08:50;;;;;;;0.68;0.68;;;;;;;;;;5040226;28;20239;-52
2022/06/28 12:11:27;;;;;;;0.60;0.60;;;;;;;;;;5045143;28;20235;-52
2022/06/28 12:13:55;;;;;;;0.68;0.68;;;;;;;;;;5042815;28;20240;-53
2022/06/28 12:16:22;;;;;;;0.88;0.70;;;;;;;;;;5043557;28;20269;-51
2022/06/28 12:18:52;;;;;;;0.63;0.63;;;;;;;;;;5042694;28;20239;-52
2022/06/28 12:21:18;;;;;;;0.85;0.85;;;;;;;;;;5029482;28;20344;-53
2022/06/28 12:23:48;;;;;;;1.77;0.90;;;;;;;;;;5031809;28;20235;-52
2022/06/28 12:26:15;;;;;;;1.85;0.90;;;;;;;;;;5032174;28;20294;-51
2022/06/28 12:28:41;;;;;;;0.80;0.70;;;;;;;;;;5027800;28;20235;-51
2022/06/28 12:31:07;;;;;;;0.68;0.68;;;;;;;;;;5033776;28;20224;-52
2022/06/28 12:33:35;;;;;;;1.23;0.90;;;;;;;;;;5029612;28;20238;-51
2022/06/28 12:36:01;;;;;;;0.70;0.70;;;;;;;;;;5009021;28;20598;-51
2022/06/28 12:38:28;;;;;;;0.55;0.55;;;;;;;;;;5023138;28;20239;-51
2022/06/28 12:40:54;;;;;;;1.45;1.00;;;;;;;;;;5032139;28;20341;-52
2022/06/28 12:43:20;;;;;;;0.85;0.85;;;;;;;;;;5041185;28;20241;-52
2022/06/28 12:45:47;;;;;;;0.80;0.80;;;;;;;;;;5038225;28;20235;-52
2022/06/28 12:48:13;;;;;;;1.48;0.77;;;;;;;;;;5044846;28;20226;-51
2022/06/28 12:50:41;;;;;;;1.00;0.50;;;;;;;;;;5041136;28;20236;-51
2022/06/28 12:53:08;;;;;;;0.73;0.73;;;;;;;;;;5044396;28;20235;-53
2022/06/28 12:55:34;;;;;;;1.80;0.60;;;;;;;;;;5042890;28;20334;-51
2022/06/28 12:58:01;;;;;;;0.90;0.82;;;;;;;;;;5043447;28;20234;-54
2022/06/28 13:00:27;;;;;;;1.00;1.00;;;;;;;;;;5044813;28;20231;-52
2022/06/28 13:02:54;;;;;;;1.48;0.90;;;;;;;;;;5041847;28;20729;-52
2022/06/28 13:05:22;;;;;;;1.70;1.33;;;;;;;;;;5044447;28;20228;-51
2022/06/28 13:07:51;;;;;;;1.35;0.80;;;;;;;;;;5046648;28;20278;-51
2022/06/28 13:10:17;;;;;;;0.80;0.80;;;;;;;;;;5045464;28;20224;-50
2022/06/28 13:12:44;;;;;;;4.05;2.00;;;;;;;;;;5041097;28;20232;-52
2022/06/28 13:15:10;;;;;;;0.88;0.88;;;;;;;;;;5040940;28;20758;-52
2022/06/28 13:17:37;;;;;;;1.10;0.98;;;;;;;;;;5045449;28;20231;-52
2022/06/28 13:20:06;;;;;;;0.90;0.88;;;;;;;;;;5037949;28;20237;-52
2022/06/28 13:22:32;;;;;;;8.43;2.88;;;;;;;;;;5041556;28;20298;-52
2022/06/28 13:25:00;;;;;;;0.50;0.50;;;;;;;;;;5018890;28;20245;-52
2022/06/28 13:27:26;;;;;;;0.77;0.70;;;;;;;;;;5041362;28;20223;-53
2022/06/28 13:29:53;;;;;;;1.08;1.08;;;;;;;;;;5033518;28;20243;-52
2022/06/28 13:32:21;;;;;;;1.05;0.80;;;;;;;;;;5044827;28;20833;-51
2022/06/28 13:34:48;;;;;;;0.60;0.60;;;;;;;;;;5037289;28;20511;-53
2022/06/28 13:37:15;;;;;;;0.85;0.85;;;;;;;;;;5034600;28;20267;-52
2022/06/28 13:39:41;;;;;;;1.20;0.93;;;;;;;;;;5037568;28;20245;-51
2022/06/28 13:42:09;;;;;;;0.70;0.70;;;;;;;;;;5037278;28;20236;-51
2022/06/28 13:44:36;;;;;;;1.00;0.90;;;;;;;;;;5034788;28;20241;-51
2022/06/28 13:47:02;;;;;;;0.90;0.70;;;;;;;;;;5044132;28;20232;-53
2022/06/28 13:49:28;;;;;;;0.77;0.77;;;;;;;;;;5042045;28;20233;-52
2022/06/28 13:51:55;;;;;;;0.70;0.70;;;;;;;;;;5032498;28;20293;-52
2022/06/28 13:54:21;;;;;;;0.70;0.70;;;;;;;;;;5029433;28;20742;-52
2022/06/28 13:56:48;;;;;;;0.82;0.80;;;;;;;;;;5043149;28;20656;-52
2022/06/28 13:59:16;;;;;;;2.53;0.75;;;;;;;;;;5039764;28;20231;-53
2022/06/28 14:01:46;;;;;;;0.80;0.80;;;;;;;;;;5042169;28;20415;-53
2022/06/28 14:04:12;;;;;;;0.60;0.60;;;;;;;;;;5042100;28;20232;-52
2022/06/28 14:06:38;;;;;;;2.65;0.85;;;;;;;;;;5040151;28;20228;-52
2022/06/28 14:09:05;;;;;;;0.90;0.75;;;;;;;;;;5036158;28;20224;-53
2022/06/28 14:11:31;;;;;;;0.80;0.80;;;;;;;;;;5028169;28;20734;-52
2022/06/28 14:13:57;;;;;;;0.70;0.70;;;;;;;;;;5041727;28;20236;-52
2022/06/28 14:16:25;;;;;;;0.70;0.70;;;;;;;;;;5034245;28;20243;-51
2022/06/28 14:18:51;;;;;;;1.05;1.00;;;;;;;;;;5038043;28;22201;-54
2022/06/28 14:21:18;;;;;;;0.82;0.70;;;;;;;;;;5035463;28;20231;-51
2022/06/28 14:23:44;;;;;;;0.90;0.63;;;;;;;;;;5039129;28;20269;-51
2022/06/28 14:26:11;;;;;;;0.80;0.80;;;;;;;;;;5040234;28;20224;-51
2022/06/28 14:28:37;;;;;;;0.90;0.90;;;;;;;;;;5030251;28;20567;-51
2022/06/28 14:31:03;;;;;;;0.70;0.70;;;;;;;;;;5035688;28;20229;-51
2022/06/28 14:33:31;;;;;;;0.88;0.88;;;;;;;;;;5031222;28;20239;-51
2022/06/28 14:36:00;;;;;;;0.90;0.70;;;;;;;;;;5034248;28;20247;-52
2022/06/28 14:38:26;;;;;;;0.55;0.55;;;;;;;;;;5041749;28;20353;-51
2022/06/28 14:40:53;;;;;;;1.05;0.77;;;;;;;;;;5030765;28;20245;-50
2022/06/28 14:43:20;;;;;;;0.80;0.60;;;;;;;;;;5035032;28;20232;-52
2022/06/28 14:45:47;;;;;;;0.75;0.75;;;;;;;;;;5039491;28;20769;-52
2022/06/28 14:48:13;;;;;;;0.50;0.50;;;;;;;;;;5041393;28;20234;-52
2022/06/28 14:50:41;;;;;;;0.88;0.68;;;;;;;;;;5033674;28;20232;-52
2022/06/28 14:53:11;;;;;;;0.75;0.75;;;;;;;;;;5024049;28;20741;-51
2022/06/28 14:55:38;;;;;;;0.95;0.73;;;;;;;;;;5044254;28;20312;-51
2022/06/28 14:58:05;;;;;;;0.88;0.88;;;;;;;;;;5033792;28;20319;-52
2022/06/28 15:00:31;;;;;;;1.42;1.00;;;;;;;;;;5039276;28;20293;-51